createdAt,value
2022-08-02T00:02:20.723Z,101324.63
2022-08-02T00:04:47.652Z,101289.66
2022-08-02T00:07:15.050Z,101321.75
2022-08-02T00:09:42.234Z,101307.78
2022-08-02T00:12:09.384Z,101318.75
2022-08-02T00:14:36.370Z,101331.00
2022-08-02T00:17:02.893Z,101334.16
2022-08-02T00:19:29.467Z,101309.75
2022-08-02T00:21:56.103Z,101298.78
2022-08-02T00:24:30.979Z,101321.03
2022-08-02T00:26:58.164Z,101329.44
2022-08-02T00:29:27.971Z,101312.75
2022-08-02T00:31:54.625Z,101304.66
2022-08-02T00:34:29.101Z,101321.47
2022-08-02T00:36:58.788Z,101327.88
2022-08-02T00:39:34.592Z,101322.63
2022-08-02T00:42:02.415Z,101310.91
2022-08-02T00:44:28.930Z,101325.16
2022-08-02T00:46:55.488Z,101295.06
2022-08-02T00:49:24.559Z,101302.50
2022-08-02T00:51:51.377Z,101311.63
2022-08-02T00:54:22.793Z,101330.84
2022-08-02T00:56:51.147Z,101321.03
2022-08-02T00:59:18.308Z,101303.50
2022-08-02T01:01:56.131Z,101313.19
2022-08-02T01:04:30.995Z,101328.47
2022-08-02T01:07:00.406Z,101341.84
2022-08-02T01:09:27.509Z,101294.81
2022-08-02T01:11:54.127Z,101307.63
2022-08-02T01:14:25.155Z,101322.59
2022-08-02T01:16:59.963Z,101301.34
2022-08-02T01:19:55.466Z,101329.41
2022-08-02T01:23:04.417Z,101323.00
2022-08-02T01:25:39.903Z,101351.41
2022-08-02T01:28:44.048Z,101351.53
2022-08-02T01:31:14.317Z,101351.22
2022-08-02T01:34:06.467Z,101350.22
2022-08-02T01:36:38.324Z,101337.25
2022-08-02T01:39:09.508Z,101342.41
2022-08-02T01:41:37.174Z,101339.28
2022-08-02T01:44:05.288Z,101337.41
2022-08-02T01:46:34.281Z,101351.09
2022-08-02T01:49:09.399Z,101352.53
2022-08-02T01:51:56.327Z,101295.88
2022-08-02T01:54:26.901Z,101353.81
2022-08-02T01:56:55.563Z,101320.31
2022-08-02T01:59:24.008Z,101327.16
2022-08-02T02:01:54.723Z,101345.41
2022-08-02T02:04:22.524Z,101323.75
2022-08-02T02:06:51.188Z,101346.28
2022-08-02T02:09:19.301Z,101347.25
2022-08-02T02:12:05.157Z,101333.59
2022-08-02T02:14:36.058Z,101345.75
2022-08-02T02:17:03.829Z,101324.00
2022-08-02T02:19:33.076Z,101344.69
2022-08-02T02:21:59.711Z,101318.19
2022-08-02T02:24:28.207Z,101360.13
2022-08-02T02:26:55.358Z,101335.00
2022-08-02T02:29:26.114Z,101305.78
2022-08-02T02:31:55.396Z,101314.63
2022-08-02T02:34:32.058Z,101334.13
2022-08-02T02:37:02.797Z,101353.22
2022-08-02T02:39:31.443Z,101352.13
2022-08-02T02:42:03.761Z,101309.34
2022-08-02T02:44:33.205Z,101353.72
2022-08-02T02:47:01.998Z,101358.97
2022-08-02T02:49:34.846Z,101334.59
2022-08-02T02:52:03.690Z,101357.06
2022-08-02T02:54:34.869Z,101338.28
2022-08-02T02:57:04.119Z,101348.53
2022-08-02T02:59:34.044Z,101365.47
2022-08-02T03:02:01.460Z,101336.09
2022-08-02T03:04:55.998Z,101355.81
2022-08-02T03:07:17.601Z,101353.13
2022-08-02T03:09:44.621Z,101362.59
2022-08-02T03:12:20.140Z,101338.97
2022-08-02T03:14:49.327Z,101344.84
2022-08-02T03:17:16.771Z,101374.47
2022-08-02T03:19:43.294Z,101364.38
2022-08-02T03:22:10.189Z,101339.03
2022-08-02T03:24:37.395Z,101384.09
2022-08-02T03:27:04.240Z,101346.75
2022-08-02T03:29:34.434Z,101384.63
2022-08-02T03:32:01.491Z,101357.81
2022-08-02T03:34:27.954Z,101375.81
2022-08-02T03:36:58.294Z,101363.44
2022-08-02T03:39:25.860Z,101354.31
2022-08-02T03:41:54.552Z,101366.25
2022-08-02T03:44:21.645Z,101357.47
2022-08-02T03:46:48.213Z,101375.13
2022-08-02T03:49:16.835Z,101378.81
2022-08-02T03:51:44.717Z,101339.47
2022-08-02T03:54:12.211Z,101384.88
2022-08-02T03:56:39.497Z,101360.34
2022-08-02T03:59:12.834Z,101393.41
2022-08-02T04:01:39.931Z,101407.09
2022-08-02T04:04:08.289Z,101387.31
2022-08-02T04:06:40.135Z,101384.75
2022-08-02T04:09:09.191Z,101394.44
2022-08-02T04:11:35.993Z,101389.66
2022-08-02T04:14:04.791Z,101420.50
2022-08-02T04:16:44.804Z,101404.13
2022-08-02T04:19:17.127Z,101415.69
2022-08-02T04:21:51.486Z,101365.19
2022-08-02T04:24:24.827Z,101409.75
2022-08-02T04:27:01.123Z,101368.91
2022-08-02T04:29:46.949Z,101386.97
2022-08-02T04:32:15.414Z,101408.34
2022-08-02T04:34:54.235Z,101438.47
2022-08-02T04:37:33.943Z,101431.72
2022-08-02T04:40:01.004Z,101408.94
2022-08-02T04:42:27.826Z,101421.56
2022-08-02T04:44:54.740Z,101423.53
2022-08-02T04:47:54.140Z,101401.50
2022-08-02T04:50:09.166Z,101424.19
2022-08-02T04:52:35.742Z,101429.25
2022-08-02T04:55:02.550Z,101391.09
2022-08-02T04:57:52.767Z,101429.72
2022-08-02T05:00:20.030Z,101409.78
2022-08-02T05:02:55.668Z,101383.63
2022-08-02T05:05:27.487Z,101408.75
2022-08-02T05:07:58.743Z,101389.44
2022-08-02T05:10:31.209Z,101389.31
2022-08-02T05:12:58.329Z,101398.28
2022-08-02T05:15:33.399Z,101393.78
2022-08-02T05:18:11.109Z,101383.63
2022-08-02T05:20:42.543Z,101402.34
2022-08-02T05:23:09.546Z,101388.22
2022-08-02T05:25:36.409Z,101383.53
2022-08-02T05:28:02.965Z,101434.38
2022-08-02T05:30:32.695Z,101397.56
2022-08-02T05:33:02.146Z,101434.84
2022-08-02T05:35:42.813Z,101423.91
2022-08-02T05:38:10.316Z,101399.19
2022-08-02T05:40:46.680Z,101400.06
2022-08-02T05:43:24.207Z,101455.53
2022-08-02T05:45:55.053Z,101414.84
2022-08-02T05:48:30.890Z,101423.97
2022-08-02T05:51:38.897Z,101414.19
2022-08-02T05:54:13.266Z,101450.50
2022-08-02T05:56:50.078Z,101430.78
2022-08-02T05:59:47.516Z,101461.38
2022-08-02T06:02:39.706Z,101452.00
2022-08-02T06:05:21.209Z,101409.25
2022-08-02T06:07:50.005Z,101465.84
2022-08-02T06:10:21.851Z,101437.28
2022-08-02T06:12:54.451Z,101452.81
2022-08-02T06:15:25.738Z,101436.41
2022-08-02T06:18:01.019Z,101443.66
2022-08-02T06:20:40.660Z,101443.63
2022-08-02T06:23:12.033Z,101449.63
2022-08-02T06:25:50.728Z,101421.53
2022-08-02T06:28:21.166Z,101461.47
2022-08-02T06:30:48.292Z,101469.75
2022-08-02T06:33:15.647Z,101449.00
2022-08-02T06:35:48.388Z,101470.00
2022-08-02T06:38:22.171Z,101432.13
2022-08-02T06:41:01.319Z,101453.53
2022-08-02T06:43:30.932Z,101445.06
2022-08-02T06:46:37.680Z,101412.75
2022-08-02T06:48:48.419Z,101453.75
2022-08-02T06:51:15.235Z,101456.59
2022-08-02T06:53:45.098Z,101452.97
2022-08-02T06:56:12.203Z,101437.16
2022-08-02T06:58:40.741Z,101413.78
2022-08-02T07:01:11.458Z,101403.16
2022-08-02T07:03:41.950Z,101415.66
2022-08-02T07:06:09.450Z,101422.81
2022-08-02T07:08:38.522Z,101440.13
2022-08-02T07:11:09.678Z,101441.75
2022-08-02T07:13:39.808Z,101427.91
2022-08-02T07:16:07.504Z,101435.28
2022-08-02T07:18:34.881Z,101448.94
2022-08-02T07:21:01.398Z,101442.22
2022-08-02T07:23:27.916Z,101429.16
2022-08-02T07:26:02.835Z,101434.69
2022-08-02T07:28:31.121Z,101452.72
2022-08-02T07:30:57.573Z,101432.13
2022-08-02T07:33:38.187Z,101439.63
2022-08-02T07:36:06.105Z,101440.88
2022-08-02T07:38:35.455Z,101447.06
2022-08-02T07:41:04.146Z,101426.41
2022-08-02T07:43:30.617Z,101444.53
2022-08-02T07:46:00.659Z,101431.63
2022-08-02T07:48:27.663Z,101433.75
2022-08-02T07:50:54.258Z,101426.06
2022-08-02T07:53:20.608Z,101438.97
2022-08-02T07:56:07.099Z,101436.41
2022-08-02T07:58:33.475Z,101435.59
2022-08-02T08:01:00.357Z,101420.00
2022-08-02T08:03:27.004Z,101420.84
2022-08-02T08:05:54.713Z,101433.28
2022-08-02T08:08:21.865Z,101419.94
2022-08-02T08:10:49.304Z,101396.94
2022-08-02T08:13:16.626Z,101431.22
2022-08-02T08:15:51.631Z,101410.16
2022-08-02T08:18:20.021Z,101419.88
2022-08-02T08:20:46.889Z,101403.00
2022-08-02T08:23:13.425Z,101425.53
2022-08-02T08:25:42.088Z,101422.47
2022-08-02T08:28:08.855Z,101421.28
2022-08-02T08:30:35.272Z,101420.59
2022-08-02T08:33:02.148Z,101379.31
2022-08-02T08:35:36.113Z,101377.03
2022-08-02T08:38:07.495Z,101392.78
2022-08-02T08:40:34.801Z,101402.31
2022-08-02T08:43:01.416Z,101412.06
2022-08-02T08:45:27.964Z,101411.56
2022-08-02T08:48:30.275Z,101358.50
2022-08-02T08:51:14.492Z,101418.81
2022-08-02T08:53:43.996Z,101401.66
2022-08-02T08:56:16.471Z,101407.16
2022-08-02T08:58:49.748Z,101360.75
2022-08-02T09:01:17.351Z,101390.09
2022-08-02T09:03:44.769Z,101406.28
2022-08-02T09:06:11.814Z,101404.00
2022-08-02T09:08:41.365Z,101384.78
2022-08-02T09:11:25.043Z,101405.56
2022-08-02T09:13:53.258Z,101396.97
2022-08-02T09:16:33.829Z,101415.41
2022-08-02T09:19:02.628Z,101393.59
2022-08-02T09:21:38.252Z,101373.06
2022-08-02T09:24:16.025Z,101385.63
2022-08-02T09:26:42.502Z,101389.78
2022-08-02T09:29:09.149Z,101373.66
2022-08-02T09:31:35.566Z,101402.41
2022-08-02T09:34:02.062Z,101380.38
2022-08-02T09:36:45.820Z,101372.69
2022-08-02T09:39:14.464Z,101377.47
2022-08-02T09:41:43.088Z,101395.75
2022-08-02T09:44:16.229Z,101386.09
2022-08-02T09:46:46.674Z,101379.84
2022-08-02T09:49:20.362Z,101380.28
2022-08-02T09:51:47.016Z,101375.47
2022-08-02T09:54:20.437Z,101371.22
2022-08-02T09:56:50.886Z,101376.28
2022-08-02T09:59:20.532Z,101370.00
2022-08-02T10:01:50.682Z,101374.81
2022-08-02T10:04:34.133Z,101379.72
2022-08-02T10:07:04.151Z,101374.88
2022-08-02T10:09:34.041Z,101388.09
2022-08-02T10:12:01.750Z,101383.91
2022-08-02T10:14:30.119Z,101377.09
2022-08-02T10:17:05.466Z,101360.06
2022-08-02T10:20:01.290Z,101395.31
2022-08-02T10:22:20.916Z,101373.03
2022-08-02T10:24:48.782Z,101383.94
2022-08-02T10:27:20.362Z,101374.97
2022-08-02T10:29:53.928Z,101385.75
2022-08-02T10:32:26.903Z,101389.94
2022-08-02T10:34:58.475Z,101381.63
2022-08-02T10:37:47.792Z,101385.84
2022-08-02T10:40:23.353Z,101378.88
2022-08-02T10:42:52.232Z,101375.59
2022-08-02T10:45:20.814Z,101368.19
2022-08-02T10:48:04.162Z,101369.50
2022-08-02T10:50:48.730Z,101346.69
2022-08-02T10:53:26.275Z,101347.22
2022-08-02T10:55:55.281Z,101354.19
2022-08-02T10:58:31.620Z,101336.66
2022-08-02T11:01:03.785Z,101343.66
2022-08-02T11:03:41.731Z,101352.50
2022-08-02T11:06:25.234Z,101316.47
2022-08-02T11:09:32.972Z,101340.19
2022-08-02T11:12:02.852Z,101342.06
2022-08-02T11:14:29.691Z,101331.97
2022-08-02T11:16:56.136Z,101346.28
2022-08-02T11:19:27.143Z,101344.56
2022-08-02T11:22:13.367Z,101323.75
2022-08-02T11:24:42.418Z,101321.69
2022-08-02T11:27:18.620Z,101325.19
2022-08-02T11:29:50.027Z,101324.56
2022-08-02T11:32:30.507Z,101337.44
2022-08-02T11:34:58.922Z,101332.13
2022-08-02T11:37:34.659Z,101330.06
2022-08-02T11:40:01.557Z,101319.81
2022-08-02T11:42:35.796Z,101286.66
2022-08-02T11:45:02.759Z,101330.66
2022-08-02T11:47:29.282Z,101319.50
2022-08-02T11:50:09.120Z,101337.94
2022-08-02T11:52:37.332Z,101316.19
2022-08-02T11:55:06.264Z,101327.31
2022-08-02T11:58:03.075Z,101322.88
2022-08-02T12:00:21.877Z,101315.25
2022-08-02T12:02:49.611Z,101313.81
2022-08-02T12:05:19.323Z,101306.31
2022-08-02T12:07:46.790Z,101309.25
2022-08-02T12:10:16.886Z,101304.78
2022-08-02T12:13:03.590Z,101304.13
2022-08-02T12:15:40.304Z,101296.88
2022-08-02T12:18:39.417Z,101299.91
2022-08-02T12:21:24.688Z,101278.06
2022-08-02T12:24:00.094Z,101276.78
2022-08-02T12:26:29.367Z,101293.59
2022-08-02T12:28:57.822Z,101279.25
2022-08-02T12:31:56.975Z,101270.56
2022-08-02T12:34:29.984Z,101259.88
2022-08-02T12:37:06.257Z,101300.56
2022-08-02T12:39:45.912Z,101280.94
2022-08-02T12:42:15.725Z,101277.81
2022-08-02T12:44:56.192Z,101290.56
2022-08-02T12:47:22.661Z,101265.56
2022-08-02T12:50:07.785Z,101277.22
2022-08-02T12:52:34.474Z,101255.38
2022-08-02T12:55:03.191Z,101260.00
2022-08-02T12:57:33.343Z,101246.53
2022-08-02T12:59:59.828Z,101262.53
2022-08-02T13:02:26.289Z,101267.06
2022-08-02T13:04:52.731Z,101261.59
2022-08-02T13:07:19.382Z,101262.78
2022-08-02T13:09:46.913Z,101255.19
2022-08-02T13:12:14.586Z,101269.19
2022-08-02T13:14:42.703Z,101253.09
2022-08-02T13:17:11.312Z,101252.44
2022-08-02T13:19:38.602Z,101246.72
2022-08-02T13:22:06.129Z,101234.09
2022-08-02T13:24:41.080Z,101246.72
2022-08-02T13:27:21.140Z,101246.56
2022-08-02T13:29:49.003Z,101237.84
2022-08-02T13:32:18.159Z,101225.47
2022-08-02T13:34:44.741Z,101242.13
2022-08-02T13:37:11.237Z,101223.38
2022-08-02T13:39:37.658Z,101241.44
2022-08-02T13:42:05.649Z,101219.19
2022-08-02T13:44:33.162Z,101210.03
2022-08-02T13:46:59.699Z,101216.38
2022-08-02T13:49:50.001Z,101233.34
2022-08-02T13:52:13.313Z,101237.00
2022-08-02T13:54:40.074Z,101228.47
2022-08-02T13:57:06.449Z,101218.75
2022-08-02T13:59:57.199Z,101214.13
2022-08-02T14:02:19.683Z,101204.09
2022-08-02T14:04:46.441Z,101193.59
2022-08-02T14:07:13.014Z,101200.41
2022-08-02T14:09:40.540Z,101192.75
2022-08-02T14:12:09.707Z,101186.47
2022-08-02T14:14:36.871Z,101191.97
2022-08-02T14:17:03.738Z,101193.09
2022-08-02T14:19:30.398Z,101211.84
2022-08-02T14:22:11.720Z,101178.38
2022-08-02T14:24:40.033Z,101190.31
2022-08-02T14:27:06.830Z,101183.69
2022-08-02T14:29:33.524Z,101171.66
2022-08-02T14:32:00.393Z,101142.09
2022-08-02T14:34:27.874Z,101149.03
2022-08-02T14:36:55.614Z,101159.69
2022-08-02T14:39:22.085Z,101179.38
2022-08-02T14:41:58.887Z,101191.81
2022-08-02T14:44:30.019Z,101182.97
2022-08-02T14:46:56.963Z,101170.75
2022-08-02T14:49:25.940Z,101182.19
2022-08-02T14:51:55.194Z,101185.16
2022-08-02T14:54:30.426Z,101167.44
2022-08-02T14:57:03.186Z,101157.47
2022-08-02T14:59:30.466Z,101160.44
2022-08-02T15:01:57.890Z,101144.38
2022-08-02T15:04:24.941Z,101153.03
2022-08-02T15:06:52.319Z,101147.34
2022-08-02T15:09:19.300Z,101144.97
2022-08-02T15:11:48.128Z,101152.38
2022-08-02T15:14:16.098Z,101142.66
2022-08-02T15:16:56.395Z,101149.66
2022-08-02T15:19:25.937Z,101157.47
2022-08-02T15:22:05.228Z,101132.25
2022-08-02T15:24:31.706Z,101138.56
2022-08-02T15:26:58.103Z,101157.22
2022-08-02T15:29:24.667Z,101130.16
2022-08-02T15:31:53.527Z,101151.91
2022-08-02T15:34:19.975Z,101149.19
2022-08-02T15:36:46.449Z,101160.75
2022-08-02T15:39:16.192Z,101143.25
2022-08-02T15:41:42.627Z,101160.97
2022-08-02T15:44:09.117Z,101159.69
2022-08-02T15:46:38.311Z,101145.22
2022-08-02T15:49:05.687Z,101134.22
2022-08-02T15:51:32.372Z,101137.84
2022-08-02T15:53:58.786Z,101138.19
2022-08-02T15:56:25.222Z,101148.13
2022-08-02T15:58:55.509Z,101140.91
2022-08-02T16:01:23.950Z,101117.78
2022-08-02T16:03:52.784Z,101122.50
2022-08-02T16:06:19.259Z,101120.59
2022-08-02T16:08:54.608Z,101140.69
2022-08-02T16:11:22.082Z,101124.09
2022-08-02T16:13:54.379Z,101139.66
2022-08-02T16:16:23.107Z,101125.00
2022-08-02T16:18:49.837Z,101139.28
2022-08-02T16:21:16.656Z,101126.19
2022-08-02T16:23:58.769Z,101096.44
2022-08-02T16:26:30.019Z,101139.19
2022-08-02T16:28:57.867Z,101143.56
2022-08-02T16:31:24.372Z,101135.56
2022-08-02T16:33:50.868Z,101144.03
2022-08-02T16:36:23.616Z,101134.78
2022-08-02T16:38:50.282Z,101114.19
2022-08-02T16:41:16.862Z,101111.09
2022-08-02T16:43:43.234Z,101133.75
2022-08-02T16:46:10.236Z,101135.97
2022-08-02T16:48:36.923Z,101116.00
2022-08-02T16:51:04.589Z,101106.00
2022-08-02T16:53:37.167Z,101120.50
2022-08-02T16:56:18.137Z,101114.47
2022-08-02T16:58:47.648Z,101123.13
2022-08-02T17:01:14.548Z,101112.41
2022-08-02T17:03:55.985Z,101106.91
2022-08-02T17:06:26.384Z,101104.38
2022-08-02T17:08:56.271Z,101102.72
2022-08-02T17:11:23.755Z,101117.97
2022-08-02T17:13:50.941Z,101120.53
2022-08-02T17:16:20.418Z,101109.13
2022-08-02T17:18:54.018Z,101128.94
2022-08-02T17:21:20.939Z,101101.16
2022-08-02T17:24:08.067Z,101105.16
2022-08-02T17:26:35.076Z,101118.72
2022-08-02T17:29:15.184Z,101127.03
2022-08-02T17:31:46.464Z,101123.38
2022-08-02T17:34:30.846Z,101126.53
2022-08-02T17:36:57.698Z,101129.47
2022-08-02T17:39:24.241Z,101098.31
2022-08-02T17:42:00.183Z,101133.66
2022-08-02T17:44:37.608Z,101128.09
2022-08-02T17:49:54.198Z,101127.22
2022-08-02T17:52:50.017Z,101124.66
2022-08-02T17:55:10.798Z,101124.03
2022-08-02T17:57:57.992Z,101115.97
2022-08-02T18:00:26.415Z,101136.41
2022-08-02T18:02:55.611Z,101098.22
2022-08-02T18:05:40.222Z,101120.84
2022-08-02T18:08:11.100Z,101147.94
2022-08-02T18:10:41.131Z,101107.28
2022-08-02T18:13:07.713Z,101135.28
2022-08-02T18:15:34.253Z,101151.16
2022-08-02T18:18:01.202Z,101153.88
2022-08-02T18:20:27.886Z,101132.59
2022-08-02T18:22:58.320Z,101118.88
2022-08-02T18:25:37.847Z,101098.50
2022-08-02T18:28:11.436Z,101132.34
2022-08-02T18:30:39.023Z,101112.00
2022-08-02T18:33:58.938Z,101134.19
2022-08-02T18:35:56.024Z,101156.44
2022-08-02T18:38:26.904Z,101156.25
2022-08-02T21:03:10.683Z,101147.94
2022-08-02T21:09:08.198Z,101112.44
2022-08-02T21:45:17.470Z,101172.97
2022-08-02T21:47:46.662Z,101168.44
2022-08-02T21:50:16.470Z,101182.34
2022-08-02T21:52:52.165Z,101168.81
2022-08-02T21:55:21.353Z,101193.56
2022-08-02T21:57:51.079Z,101163.88
2022-08-02T22:00:17.770Z,101167.50
2022-08-02T22:02:55.166Z,101172.84
2022-08-02T22:05:21.715Z,101177.03
2022-08-02T22:07:48.208Z,101179.59
2022-08-02T22:10:17.190Z,101174.56
2022-08-02T22:12:43.751Z,101179.84
2022-08-02T22:15:11.619Z,101175.88
2022-08-02T22:17:51.192Z,101172.31
2022-08-02T22:20:21.285Z,101192.09
2022-08-02T22:22:50.623Z,101174.56
2022-08-02T22:25:27.171Z,101181.78
2022-08-02T22:28:39.446Z,101193.38
2022-08-02T22:30:55.288Z,101182.50
2022-08-02T22:33:47.144Z,101193.16
2022-08-02T22:36:28.233Z,101189.78
2022-08-02T22:38:55.241Z,101201.50
2022-08-02T22:41:22.587Z,101209.44
2022-08-02T22:43:49.519Z,101207.97
2022-08-02T22:46:16.673Z,101212.22
2022-08-02T22:48:44.115Z,101195.03
2022-08-02T22:51:10.953Z,101201.28
2022-08-02T22:53:39.108Z,101199.78
2022-08-02T22:56:05.573Z,101199.22
2022-08-02T22:58:32.755Z,101216.34
2022-08-02T22:58:40.416Z,101133.69
2022-08-02T23:00:59.736Z,101222.19
2022-08-02T23:03:26.540Z,101219.44
2022-08-02T23:05:52.931Z,101219.84
2022-08-02T23:08:19.521Z,101205.97
2022-08-02T23:10:45.975Z,101205.13
2022-08-02T23:13:12.508Z,101228.38
2022-08-02T23:15:58.691Z,101197.63
2022-08-02T23:18:43.791Z,101197.97
2022-08-02T23:21:10.326Z,101193.94
2022-08-02T23:23:37.348Z,101229.66
2022-08-02T23:26:04.067Z,101210.25
2022-08-02T23:28:30.540Z,101224.19
2022-08-02T23:30:56.976Z,101205.66
2022-08-02T23:33:23.419Z,101214.63
2022-08-02T23:35:49.901Z,101208.91
2022-08-02T23:38:16.387Z,101208.59
2022-08-02T23:40:42.810Z,101199.47
2022-08-02T23:43:14.253Z,101214.34
2022-08-02T23:45:44.073Z,101206.97
2022-08-02T23:48:10.575Z,101202.34
2022-08-02T23:50:37.116Z,101215.75
2022-08-02T23:53:03.912Z,101211.25
2022-08-02T23:55:30.387Z,101208.38
2022-08-02T23:57:56.876Z,101203.59
